< < Back
Terminal Aerodrome Forecast


Current Version              Previous Versions:   1  2  3  4  5  6  7  8  9  

Terminal Aerodrome Forecast

549
FTUS42 KMLB 131120
TAFDAB
TAF
KDAB 131120Z 1312/1412 28005KT P6SM SKC
     FM131500 35012G18KT P6SM SKC
     FM140000 02007KT P6SM SKC=



Latest METAR

904
SAUS80 KWBC 141400 RRA
MTRDAB
METAR KDAB 141353Z 33005KT 10SM FEW030 FEW250 12/07 A3030 RMK AO2 SLP258
T01220067 $


USA.gov is the U.S. government's official web portal to all federal, state and local government web resources and services.